createdAt,value
2022-10-18T00:00:01.007Z,17.80
2022-10-18T00:02:27.663Z,17.80
2022-10-18T00:04:54.312Z,17.80
2022-10-18T00:07:20.959Z,17.80
2022-10-18T00:09:47.524Z,17.80
2022-10-18T00:12:14.480Z,17.80
2022-10-18T00:14:41.109Z,17.80
2022-10-18T00:17:07.719Z,17.80
2022-10-18T00:19:34.300Z,17.80
2022-10-18T00:22:00.908Z,17.80
2022-10-18T00:24:27.471Z,17.80
2022-10-18T00:26:54.041Z,17.70
2022-10-18T00:29:20.623Z,17.70
2022-10-18T00:31:47.168Z,17.70
2022-10-18T00:34:16.126Z,17.80
2022-10-18T00:36:44.672Z,17.80
2022-10-18T00:39:20.343Z,17.70
2022-10-18T00:41:47.576Z,17.70
2022-10-18T00:44:14.124Z,17.70
2022-10-18T00:46:46.489Z,17.70
2022-10-18T00:49:22.459Z,17.70
2022-10-18T00:51:51.337Z,17.70
2022-10-18T00:54:20.413Z,17.70
2022-10-18T00:56:47.037Z,17.70
2022-10-18T00:59:16.467Z,17.70
2022-10-18T01:01:43.722Z,17.80
2022-10-18T01:04:10.791Z,17.70
2022-10-18T01:09:59.444Z,17.70
2022-10-18T01:12:56.580Z,17.70
2022-10-18T01:15:48.902Z,17.60
2022-10-18T01:18:37.468Z,17.70
2022-10-18T01:21:17.605Z,17.60
2022-10-18T01:24:22.880Z,17.60
2022-10-18T01:27:05.311Z,17.70
2022-10-18T01:29:47.179Z,17.70
2022-10-18T01:32:22.094Z,17.70
2022-10-18T01:34:52.692Z,17.60
2022-10-18T01:37:21.383Z,17.70
2022-10-18T01:39:48.516Z,17.60
2022-10-18T01:42:19.433Z,17.60
2022-10-18T01:44:49.479Z,17.60
2022-10-18T01:47:17.777Z,17.60
2022-10-18T01:49:44.359Z,17.60
2022-10-18T01:52:15.870Z,17.60
2022-10-18T01:54:49.066Z,17.70
2022-10-18T01:57:41.641Z,17.60
2022-10-18T02:00:23.998Z,17.60
2022-10-18T02:02:57.081Z,17.50
2022-10-18T02:05:36.599Z,17.50
2022-10-18T02:08:30.757Z,17.60
2022-10-18T02:11:07.724Z,17.60
2022-10-18T02:13:42.144Z,17.60
2022-10-18T02:16:13.822Z,17.60
2022-10-18T02:18:44.267Z,17.60
2022-10-18T02:21:14.084Z,17.60
2022-10-18T02:23:40.712Z,17.50
2022-10-18T02:26:07.457Z,17.60
2022-10-18T02:28:34.319Z,17.50
2022-10-18T02:31:18.664Z,17.50
2022-10-18T02:33:56.645Z,17.60
2022-10-18T02:36:33.025Z,17.60
2022-10-18T02:39:03.954Z,17.60
2022-10-18T02:41:31.447Z,17.60
2022-10-18T02:43:58.080Z,17.60
2022-10-18T02:46:24.802Z,17.60
2022-10-18T02:48:51.728Z,17.50
2022-10-18T02:51:18.350Z,17.50
2022-10-18T02:53:46.009Z,17.50
2022-10-18T02:56:12.637Z,17.50
2022-10-18T02:58:39.198Z,17.50
2022-10-18T03:01:05.877Z,17.60
2022-10-18T03:03:32.427Z,17.60
2022-10-18T03:05:59.056Z,17.50
2022-10-18T03:08:26.079Z,17.50
2022-10-18T03:10:52.698Z,17.50
2022-10-18T03:13:19.382Z,17.50
2022-10-18T03:15:47.908Z,17.50
2022-10-18T03:18:15.203Z,17.60
2022-10-18T03:20:41.815Z,17.50
2022-10-18T03:23:08.558Z,17.50
2022-10-18T03:25:35.132Z,17.50
2022-10-18T03:28:01.733Z,17.50
2022-10-18T03:30:28.359Z,17.50
2022-10-18T03:32:55.011Z,17.50
2022-10-18T03:35:22.244Z,17.50
2022-10-18T03:37:49.284Z,17.50
2022-10-18T03:40:16.236Z,17.50
2022-10-18T03:42:42.944Z,17.50
2022-10-18T03:45:09.788Z,17.50
2022-10-18T03:47:36.347Z,17.50
2022-10-18T03:50:03.289Z,17.40
2022-10-18T03:52:30.192Z,17.40
2022-10-18T03:54:57.000Z,17.40
2022-10-18T03:57:23.576Z,17.40
2022-10-18T03:59:50.158Z,17.50
2022-10-18T04:02:16.767Z,17.50
2022-10-18T04:04:43.379Z,17.50
2022-10-18T04:07:09.960Z,17.50
2022-10-18T04:09:36.556Z,17.40
2022-10-18T04:12:03.212Z,17.40
2022-10-18T04:14:29.846Z,17.40
2022-10-18T04:16:56.418Z,17.50
2022-10-18T04:19:23.019Z,17.40
2022-10-18T04:21:49.600Z,17.40
2022-10-18T04:24:19.603Z,17.40
2022-10-18T04:26:46.186Z,17.40
2022-10-18T04:29:12.863Z,17.50
2022-10-18T04:31:39.527Z,17.40
2022-10-18T04:34:06.196Z,17.40
2022-10-18T04:36:32.858Z,17.40
2022-10-18T04:38:59.421Z,17.40
2022-10-18T04:41:25.993Z,17.40
2022-10-18T04:43:52.641Z,17.40
2022-10-18T04:46:19.253Z,17.40
2022-10-18T04:48:45.870Z,17.40
2022-10-18T04:51:12.442Z,17.40
2022-10-18T04:53:39.062Z,17.40
2022-10-18T04:56:06.073Z,17.30
2022-10-18T04:58:32.721Z,17.30
2022-10-18T05:00:59.319Z,17.40
2022-10-18T05:03:26.014Z,17.40
2022-10-18T05:06:07.260Z,17.30
2022-10-18T05:08:35.571Z,17.40
2022-10-18T05:11:03.551Z,17.30
2022-10-18T05:13:31.096Z,17.30
2022-10-18T05:15:59.403Z,17.30
2022-10-18T05:18:26.132Z,17.30
2022-10-18T05:20:52.697Z,17.30
2022-10-18T05:23:19.291Z,17.30
2022-10-18T05:25:46.194Z,17.30
2022-10-18T05:28:41.587Z,17.30
2022-10-18T05:31:04.349Z,17.30
2022-10-18T05:33:31.697Z,17.30
2022-10-18T05:35:58.556Z,17.20
2022-10-18T05:38:25.468Z,17.20
2022-10-18T05:40:52.253Z,17.20
2022-10-18T05:43:18.837Z,17.20
2022-10-18T05:45:52.458Z,17.30
2022-10-18T05:48:19.052Z,17.20
2022-10-18T05:50:46.036Z,17.20
2022-10-18T05:53:31.801Z,17.20
2022-10-18T05:56:02.733Z,17.20
2022-10-18T05:58:29.502Z,17.20
2022-10-18T06:01:01.679Z,17.20
2022-10-18T06:03:30.435Z,17.20
2022-10-18T06:06:05.834Z,17.20
2022-10-18T06:08:33.189Z,17.20
2022-10-18T06:11:00.011Z,17.20
2022-10-18T06:13:26.673Z,17.30
2022-10-18T06:15:57.447Z,17.20
2022-10-18T06:18:24.159Z,17.20
2022-10-18T06:20:56.856Z,17.10
2022-10-18T06:23:23.484Z,17.20
2022-10-18T06:25:50.083Z,17.10
2022-10-18T06:28:16.655Z,17.10
2022-10-18T06:30:43.796Z,17.10
2022-10-18T06:33:11.927Z,17.10
2022-10-18T06:35:38.519Z,17.10
2022-10-18T06:38:06.158Z,17.10
2022-10-18T06:40:37.789Z,17.20
2022-10-18T06:43:20.093Z,17.10
2022-10-18T06:45:47.548Z,17.10
2022-10-18T06:48:14.225Z,17.10
2022-10-18T06:50:40.926Z,17.10
2022-10-18T06:53:08.899Z,17.10
2022-10-18T06:55:35.930Z,17.20
2022-10-18T06:58:02.669Z,17.20
2022-10-18T07:00:29.239Z,17.20
2022-10-18T07:02:58.128Z,17.20
2022-10-18T07:05:24.947Z,17.20
2022-10-18T07:07:54.294Z,17.20
2022-10-18T07:10:23.953Z,17.20
2022-10-18T07:12:53.511Z,17.10
2022-10-18T07:15:24.008Z,17.10
2022-10-18T07:17:50.679Z,17.10
2022-10-18T07:20:17.417Z,17.10
2022-10-18T07:22:44.075Z,17.10
2022-10-18T07:25:10.988Z,17.10
2022-10-18T07:27:39.885Z,17.20
2022-10-18T07:30:08.475Z,17.20
2022-10-18T07:32:35.417Z,17.20
2022-10-18T07:35:02.665Z,17.10
2022-10-18T07:37:30.392Z,17.10
2022-10-18T07:39:57.280Z,17.20
2022-10-18T07:42:24.122Z,17.10
2022-10-18T07:44:51.074Z,17.00
2022-10-18T07:47:18.228Z,17.10
2022-10-18T07:49:45.070Z,17.00
2022-10-18T07:52:11.908Z,17.00
2022-10-18T07:54:38.912Z,17.00
2022-10-18T07:57:05.694Z,17.00
2022-10-18T07:59:32.441Z,17.00
2022-10-18T08:01:59.287Z,17.00
2022-10-18T08:04:26.076Z,17.10
2022-10-18T08:06:52.872Z,17.10
2022-10-18T08:09:19.896Z,17.10
2022-10-18T08:11:46.853Z,17.00
2022-10-18T08:14:13.608Z,17.10
2022-10-18T08:16:40.457Z,17.10
2022-10-18T08:19:07.194Z,17.10
2022-10-18T08:21:33.776Z,17.10
2022-10-18T08:24:00.348Z,17.10
2022-10-18T08:26:26.919Z,17.20
2022-10-18T08:29:10.215Z,17.20
2022-10-18T08:31:42.636Z,17.20
2022-10-18T08:34:09.404Z,17.20
2022-10-18T08:36:36.799Z,17.10
2022-10-18T08:39:03.507Z,17.00
2022-10-18T08:41:57.044Z,17.00
2022-10-18T08:44:33.158Z,17.10
2022-10-18T08:47:11.948Z,17.10
2022-10-18T08:49:48.091Z,17.10
2022-10-18T08:52:33.833Z,17.20
2022-10-18T08:55:11.570Z,17.10
2022-10-18T08:57:38.173Z,17.10
2022-10-18T09:00:28.811Z,17.10
2022-10-18T09:03:18.722Z,17.10
2022-10-18T09:05:52.567Z,17.20
2022-10-18T09:08:27.901Z,17.20
2022-10-18T09:11:23.349Z,17.20
2022-10-18T09:13:59.576Z,17.20
2022-10-18T09:16:46.727Z,17.20
2022-10-18T09:19:20.842Z,17.20
2022-10-18T09:21:52.855Z,17.20
2022-10-18T09:24:41.156Z,17.30
2022-10-18T09:27:16.341Z,17.20
2022-10-18T09:30:13.341Z,17.20
2022-10-18T09:33:08.615Z,17.20
2022-10-18T09:35:52.184Z,17.30
2022-10-18T09:38:26.671Z,17.30
2022-10-18T09:41:02.144Z,17.30
2022-10-18T09:43:54.177Z,17.30
2022-10-18T09:46:25.120Z,17.30
2022-10-18T09:48:54.972Z,17.30
2022-10-18T09:51:26.103Z,17.40
2022-10-18T09:54:17.318Z,17.30
2022-10-18T09:57:06.488Z,17.30
2022-10-18T09:59:43.100Z,17.30
2022-10-18T10:02:14.798Z,17.30
2022-10-18T10:04:41.427Z,17.50
2022-10-18T10:07:12.419Z,17.50
2022-10-18T10:09:56.092Z,17.60
2022-10-18T10:12:35.222Z,17.50
2022-10-18T10:15:17.636Z,17.60
2022-10-18T10:17:45.248Z,17.60
2022-10-18T10:20:20.466Z,17.70
2022-10-18T10:22:49.504Z,17.60
2022-10-18T10:25:34.789Z,17.60
2022-10-18T10:28:12.777Z,17.60
2022-10-18T10:30:39.495Z,17.60
2022-10-18T10:33:07.013Z,17.60
2022-10-18T10:35:55.563Z,17.70
2022-10-18T10:38:24.745Z,17.70
2022-10-18T10:40:51.950Z,17.80
2022-10-18T10:43:38.271Z,17.70
2022-10-18T10:46:13.231Z,17.60
2022-10-18T10:49:27.936Z,17.60
2022-10-18T10:52:08.097Z,17.70
2022-10-18T10:54:38.862Z,17.80
2022-10-18T10:57:12.407Z,17.80
2022-10-18T10:59:53.297Z,17.80
2022-10-18T11:02:28.845Z,17.80
2022-10-18T11:04:56.778Z,17.80
2022-10-18T11:07:33.872Z,17.80
2022-10-18T11:10:06.486Z,17.90
2022-10-18T11:12:37.726Z,17.90
2022-10-18T11:15:11.629Z,18.00
2022-10-18T11:17:51.101Z,18.00
2022-10-18T11:20:41.632Z,18.00
2022-10-18T11:23:12.212Z,18.00
2022-10-18T11:26:09.755Z,18.10
2022-10-18T11:28:36.330Z,18.00
2022-10-18T11:31:27.175Z,18.00
2022-10-18T11:34:19.433Z,17.80
2022-10-18T11:37:27.146Z,17.80
2022-10-18T11:40:36.703Z,17.80
2022-10-18T11:43:18.579Z,17.90
2022-10-18T11:46:11.599Z,17.90
2022-10-18T11:48:59.850Z,18.00
2022-10-18T11:52:07.861Z,18.00
2022-10-18T11:54:49.147Z,18.00
2022-10-18T11:57:44.510Z,18.00
2022-10-18T12:03:27.895Z,18.20
2022-10-18T12:05:57.919Z,18.30
2022-10-18T12:08:32.981Z,18.40
2022-10-18T12:11:08.850Z,18.40
2022-10-18T12:13:56.799Z,18.40
2022-10-18T12:16:49.548Z,18.40
2022-10-18T12:19:25.280Z,18.40
2022-10-18T12:21:57.131Z,18.40
2022-10-18T12:24:30.125Z,18.30
2022-10-18T12:27:01.064Z,18.30
2022-10-18T12:29:52.627Z,18.30
2022-10-18T12:32:31.227Z,18.30
2022-10-18T12:35:01.595Z,18.30
2022-10-18T12:37:48.464Z,18.30
2022-10-18T12:40:45.629Z,18.30
2022-10-18T12:43:25.479Z,18.40
2022-10-18T12:46:00.948Z,18.40
2022-10-18T12:48:42.589Z,18.40
2022-10-18T12:51:21.407Z,18.40
2022-10-18T12:54:08.271Z,18.50
2022-10-18T12:56:41.797Z,18.50
2022-10-18T12:59:14.373Z,18.60
2022-10-18T13:01:53.421Z,18.60
2022-10-18T13:04:29.436Z,18.60
2022-10-18T13:07:05.042Z,18.70
2022-10-18T13:09:37.706Z,18.70
2022-10-18T13:12:09.961Z,18.60
2022-10-18T13:15:12.521Z,18.60
2022-10-18T13:17:54.707Z,18.50
2022-10-18T13:20:36.673Z,18.50
2022-10-18T13:23:24.461Z,18.50
2022-10-18T13:26:13.670Z,18.40
2022-10-18T13:28:45.880Z,18.40
2022-10-18T13:31:35.740Z,18.40
2022-10-18T13:34:24.140Z,18.30
2022-10-18T13:37:02.901Z,18.30
2022-10-18T13:39:31.086Z,18.30
2022-10-18T13:41:58.106Z,18.30
2022-10-18T13:44:37.534Z,18.40
2022-10-18T13:47:04.126Z,18.50
2022-10-18T13:49:40.143Z,18.60
2022-10-18T13:52:40.185Z,18.70
2022-10-18T13:55:25.618Z,18.50
2022-10-18T13:58:32.728Z,18.30
2022-10-18T14:01:14.071Z,18.30
2022-10-18T14:04:14.657Z,18.30
2022-10-18T14:06:44.142Z,18.20
2022-10-18T14:09:40.187Z,18.20
2022-10-18T14:12:38.019Z,18.20
2022-10-18T14:15:15.994Z,18.20
2022-10-18T14:17:51.008Z,18.20
2022-10-18T14:20:29.398Z,18.20
2022-10-18T14:23:08.129Z,18.20
2022-10-18T14:25:37.673Z,18.10
2022-10-18T14:28:14.956Z,18.10
2022-10-18T14:30:55.448Z,18.10
2022-10-18T14:33:41.865Z,18.10
2022-10-18T14:36:15.749Z,18.20
2022-10-18T14:39:07.169Z,18.10
2022-10-18T14:41:47.152Z,18.10
2022-10-18T14:44:17.498Z,18.20
2022-10-18T14:47:08.321Z,18.20
2022-10-18T14:49:42.991Z,18.20
2022-10-18T14:52:15.508Z,18.20
2022-10-18T14:54:43.109Z,18.20
2022-10-18T14:57:18.910Z,18.20
2022-10-18T14:59:51.752Z,18.30
2022-10-18T15:02:38.788Z,18.30
2022-10-18T15:05:21.283Z,18.20
2022-10-18T15:07:48.875Z,18.20
2022-10-18T15:10:25.329Z,18.20
2022-10-18T15:13:10.120Z,18.10
2022-10-18T15:15:38.046Z,18.10
2022-10-18T15:18:06.491Z,18.10
2022-10-18T15:20:39.301Z,18.10
2022-10-18T15:23:25.134Z,18.20
2022-10-18T15:25:59.345Z,18.10
2022-10-18T15:28:30.461Z,18.10
2022-10-18T15:30:58.330Z,18.00
2022-10-18T15:33:27.352Z,18.00
2022-10-18T15:35:54.675Z,18.10
2022-10-18T15:38:21.198Z,18.00
2022-10-18T15:40:47.852Z,18.20
2022-10-18T15:43:40.788Z,18.10
2022-10-18T15:46:32.877Z,18.00
2022-10-18T15:49:22.439Z,18.00
2022-10-18T15:51:56.231Z,18.10
2022-10-18T15:54:31.829Z,18.00
2022-10-18T15:56:58.439Z,18.10
2022-10-18T15:59:32.078Z,18.20
2022-10-18T16:01:58.937Z,18.00
2022-10-18T16:04:30.064Z,18.00
2022-10-18T16:06:57.855Z,18.00
2022-10-18T16:09:28.057Z,18.00
2022-10-18T16:11:57.347Z,17.90
2022-10-18T16:14:25.329Z,17.90
2022-10-18T16:16:55.352Z,17.90
2022-10-18T16:19:22.732Z,17.90
2022-10-18T16:21:50.639Z,18.00
2022-10-18T16:24:20.010Z,17.90
2022-10-18T16:26:47.075Z,17.90
2022-10-18T16:29:15.651Z,17.90
2022-10-18T16:31:42.538Z,17.90
2022-10-18T16:34:11.956Z,17.90
2022-10-18T16:36:38.598Z,17.90
2022-10-18T16:39:12.445Z,17.90
2022-10-18T16:41:39.045Z,17.80
2022-10-18T16:44:05.724Z,17.80
2022-10-18T16:46:34.564Z,17.80
2022-10-18T16:49:01.903Z,17.80
2022-10-18T16:51:28.764Z,17.80
2022-10-18T16:53:55.653Z,17.80
2022-10-18T16:56:28.713Z,17.80
2022-10-18T16:58:55.306Z,17.80
2022-10-18T17:01:23.489Z,17.80
2022-10-18T17:03:52.130Z,17.80
2022-10-18T17:06:25.037Z,17.80
2022-10-18T17:08:52.853Z,17.80
2022-10-18T17:11:21.394Z,17.70
2022-10-18T17:13:48.220Z,17.80
2022-10-18T17:16:24.887Z,17.70
2022-10-18T17:18:51.626Z,17.60
2022-10-18T17:21:18.463Z,17.60
2022-10-18T17:23:45.097Z,17.70
2022-10-18T17:26:28.207Z,17.70
2022-10-18T17:28:58.123Z,17.70
2022-10-18T17:31:24.794Z,17.70
2022-10-18T17:33:54.356Z,17.80
2022-10-18T17:36:21.226Z,17.70
2022-10-18T17:38:50.993Z,17.70
2022-10-18T17:41:17.716Z,17.70
2022-10-18T17:43:44.516Z,17.70
2022-10-18T17:46:12.915Z,17.70
2022-10-18T17:48:39.831Z,17.70
2022-10-18T17:51:15.490Z,17.70
2022-10-18T17:53:42.282Z,17.70
2022-10-18T17:56:11.129Z,17.80
2022-10-18T17:58:37.866Z,17.70
2022-10-18T18:01:18.684Z,17.80
2022-10-18T18:03:47.627Z,17.70
2022-10-18T18:06:21.239Z,17.70
2022-10-18T18:08:48.612Z,17.70
2022-10-18T18:11:16.663Z,17.70
2022-10-18T18:13:43.331Z,17.70
2022-10-18T18:16:15.944Z,17.70
2022-10-18T18:18:44.190Z,17.80
2022-10-18T18:21:11.383Z,17.70
2022-10-18T18:23:37.980Z,17.70
2022-10-18T18:26:05.033Z,17.70
2022-10-18T18:28:31.652Z,17.70
2022-10-18T18:30:58.261Z,17.70
2022-10-18T18:33:24.870Z,17.70
2022-10-18T18:35:56.313Z,17.70
2022-10-18T18:38:23.330Z,17.70
2022-10-18T18:40:49.977Z,17.70
2022-10-18T18:43:22.982Z,17.60
2022-10-18T18:45:51.669Z,17.70
2022-10-18T18:48:19.860Z,17.70
2022-10-18T18:50:51.136Z,17.70
2022-10-18T18:53:18.736Z,17.70
2022-10-18T18:55:45.747Z,17.70
2022-10-18T18:58:12.456Z,17.70
2022-10-18T19:00:43.544Z,17.60
2022-10-18T19:03:12.148Z,17.60
2022-10-18T19:05:38.849Z,17.70
2022-10-18T19:08:05.968Z,17.60
2022-10-18T19:10:32.675Z,17.60
2022-10-18T19:12:59.330Z,17.60
2022-10-18T19:15:26.216Z,17.60
2022-10-18T19:17:52.888Z,17.60
2022-10-18T19:20:19.627Z,17.60
2022-10-18T19:22:46.312Z,17.60
2022-10-18T19:25:13.663Z,17.50
2022-10-18T19:27:40.287Z,17.60
2022-10-18T19:30:10.183Z,17.60
2022-10-18T19:32:36.808Z,17.60
2022-10-18T19:35:04.291Z,17.60
2022-10-18T19:37:31.324Z,17.60
2022-10-18T19:39:59.396Z,17.50
2022-10-18T19:42:30.262Z,17.60
2022-10-18T19:44:57.736Z,17.60
2022-10-18T19:47:24.298Z,17.50
2022-10-18T19:49:52.733Z,17.50
2022-10-18T19:52:19.493Z,17.50
2022-10-18T19:54:48.606Z,17.50
2022-10-18T19:57:15.238Z,17.50
2022-10-18T20:02:15.049Z,17.60
2022-10-18T20:04:41.685Z,17.50
2022-10-18T20:07:09.062Z,17.60
2022-10-18T20:09:36.342Z,17.60
2022-10-18T20:12:03.067Z,17.60
2022-10-18T20:14:29.682Z,17.50
2022-10-18T20:16:56.285Z,17.60
2022-10-18T20:19:23.094Z,17.60
2022-10-18T20:21:49.702Z,17.50
2022-10-18T20:24:16.271Z,17.50
2022-10-18T20:26:43.582Z,17.60
2022-10-18T20:29:10.412Z,17.50
2022-10-18T20:31:39.017Z,17.60
2022-10-18T20:34:08.792Z,17.50
2022-10-18T20:36:35.989Z,17.60
2022-10-18T20:39:04.445Z,17.60
2022-10-18T20:41:36.378Z,17.50
2022-10-18T20:44:06.940Z,17.50
2022-10-18T20:46:35.601Z,17.50
2022-10-18T20:49:03.320Z,17.50
2022-10-18T20:51:30.129Z,17.50
2022-10-18T20:53:56.820Z,17.50
2022-10-18T20:56:26.550Z,17.50
2022-10-18T20:58:56.576Z,17.50
2022-10-18T21:01:26.049Z,17.40
2022-10-18T21:03:54.219Z,17.40
2022-10-18T21:06:25.933Z,17.40
2022-10-18T21:08:54.436Z,17.40
2022-10-18T21:11:21.129Z,17.30
2022-10-18T21:14:02.640Z,17.30
2022-10-18T21:16:31.191Z,17.30
2022-10-18T21:19:05.292Z,17.30
2022-10-18T21:21:32.254Z,17.20
2022-10-18T21:24:02.413Z,17.30
2022-10-18T21:26:32.047Z,17.30
2022-10-18T21:28:59.659Z,17.20
2022-10-18T21:31:37.241Z,17.20
2022-10-18T21:34:12.782Z,17.20
2022-10-18T21:36:40.751Z,17.20
2022-10-18T21:39:10.861Z,17.20
2022-10-18T21:41:38.042Z,17.20
2022-10-18T21:44:08.231Z,17.20
2022-10-18T21:46:37.337Z,17.10
2022-10-18T21:49:03.922Z,17.10
2022-10-18T21:51:30.618Z,17.20
2022-10-18T21:53:58.111Z,17.20
2022-10-18T21:56:30.535Z,17.20
2022-10-18T21:58:57.450Z,17.20
2022-10-18T22:01:44.132Z,17.20
2022-10-18T22:04:22.544Z,17.20
2022-10-18T22:06:49.509Z,17.20
2022-10-18T22:09:16.332Z,17.20
2022-10-18T22:11:47.870Z,17.20
2022-10-18T22:14:14.573Z,17.20
2022-10-18T22:16:41.144Z,17.20
2022-10-18T22:19:07.853Z,17.10
2022-10-18T22:21:34.824Z,17.20
2022-10-18T22:24:05.978Z,17.20
2022-10-18T22:26:35.238Z,17.20
2022-10-18T22:29:13.721Z,17.20
2022-10-18T22:31:43.616Z,17.20
2022-10-18T22:34:27.303Z,17.10
2022-10-18T22:36:54.500Z,17.10
2022-10-18T22:39:21.288Z,17.20
2022-10-18T22:41:51.960Z,17.20
2022-10-18T22:44:18.511Z,17.10
2022-10-18T22:46:45.089Z,17.10
2022-10-18T22:49:12.074Z,17.00
2022-10-18T22:51:38.813Z,17.10
2022-10-18T22:54:05.585Z,17.00
2022-10-18T22:56:32.212Z,17.00
2022-10-18T22:58:58.815Z,17.00
2022-10-18T23:01:25.403Z,17.00
2022-10-18T23:03:56.770Z,17.10
2022-10-18T23:06:28.926Z,17.00
2022-10-18T23:08:58.279Z,17.00
2022-10-18T23:11:26.730Z,16.90
2022-10-18T23:13:53.525Z,16.90
2022-10-18T23:16:21.014Z,17.00
2022-10-18T23:18:55.990Z,17.00
2022-10-18T23:21:24.376Z,17.00
2022-10-18T23:23:52.280Z,17.00
2022-10-18T23:26:21.386Z,16.90
2022-10-18T23:28:49.775Z,16.80
2022-10-18T23:31:19.490Z,16.80
2022-10-18T23:33:47.909Z,16.90
2022-10-18T23:36:15.532Z,16.80
2022-10-18T23:38:42.356Z,16.80
2022-10-18T23:41:11.659Z,16.80
2022-10-18T23:43:38.662Z,16.90
2022-10-18T23:46:05.700Z,16.90
2022-10-18T23:48:32.757Z,16.90
2022-10-18T23:50:59.500Z,16.90
2022-10-18T23:53:26.326Z,16.90
2022-10-18T23:55:53.886Z,16.90
2022-10-18T23:58:20.556Z,16.90
